Etusivu
METAR-TAF:

METAR-TAF

Lentoasemat :

Kuressaari, Viro

Kuressaaren lentoasema

Leveyspiiri: 58-13-48N, Pituuspiiri: 022-30-34E, korkeus merenpinnasta: 4 m

Tämänhetkinen sää

Tämä raportti tehtiin 26 minuuttia sitten, kello 23.50 UTC
Tuuli 7 kn koillisesta
Lämpötila 10°C
Kosteus 87%
Ilmanpaine 1011 hPa
Näkyvyys 10 km tai enemmän

METAR: EEKE 282350Z AUTO 05007KT 9999NDV NSC 10/08 Q1011

Aika: 03:16 (00:16 UTC)

Sääennuste

Tämä raportti tehtiin 10 tuntia ja 16 minuuttia sitten, kello 14.00 UTC
Ennuste voimassa 28. päivästä klo 15 UTC - 28. päivään klo 21 UTC
Tuuli 2 kn eri suunnista
Näkyvyys 10 km tai enemmän
Hajanaisia pilviä 3500 ft:n korkeudessa

TAF: EEKE 281400Z 2815/2821 VRB02KT 9999 SCT035

Säähavainnot ja -ennusteet yli 4000 lentoasemalta (METAR- ja TAF-raportit).

Käytössä olevat sääasemat on merkitty karttaan keltaisilla ja punaisilla pisteillä.

Aseta hiiri pisteen päälle nähdäksesi sääaseman nimen.

Klikkaa sitten nähdäksesi säähavainnot ja -ennusteet.

Kartan vaihtaminen: klikkaa mustalla rastilla varustettuja vihreitä pisteitä, niin voit zoomata sisään; viivalla varustettua vihreää pistettä, niin voit zoomata ulos tai vihreitä nuolia, niin pääset viereisille kartoille.


METAR-TAF: